createdAt,value
2018-06-16T00:02:12.158Z,15.70
2018-06-16T00:04:40.417Z,15.80
2018-06-16T00:07:08.671Z,15.70
2018-06-16T00:09:36.933Z,15.70
2018-06-16T00:12:05.207Z,15.70
2018-06-16T00:14:33.508Z,15.60
2018-06-16T00:17:01.778Z,15.60
2018-06-16T00:19:30.009Z,15.50
2018-06-16T00:21:58.249Z,15.50
2018-06-16T00:24:26.488Z,15.40
2018-06-16T00:26:54.760Z,15.40
2018-06-16T00:29:22.998Z,15.40
2018-06-16T00:31:51.249Z,15.30
2018-06-16T00:34:19.508Z,15.30
2018-06-16T00:36:47.769Z,15.30
2018-06-16T00:39:16.009Z,15.20
2018-06-16T00:41:44.290Z,15.20
2018-06-16T00:46:40.520Z,15.20
2018-06-16T00:49:08.899Z,15.20
2018-06-16T00:51:37.160Z,15.10
2018-06-16T00:54:05.457Z,15.10
2018-06-16T00:56:33.729Z,15.10
2018-06-16T00:59:01.986Z,15.10
2018-06-16T01:01:30.216Z,15.10
2018-06-16T01:03:58.491Z,15.00
2018-06-16T01:06:26.732Z,15.00
2018-06-16T01:08:55.025Z,14.90
2018-06-16T01:11:23.285Z,14.90
2018-06-16T01:13:51.565Z,14.90
2018-06-16T01:16:19.825Z,14.90
2018-06-16T01:18:48.126Z,14.80
2018-06-16T01:21:16.393Z,14.80
2018-06-16T01:23:44.669Z,14.80
2018-06-16T01:26:12.970Z,14.70
2018-06-16T01:28:41.223Z,14.70
2018-06-16T01:31:09.513Z,14.70
2018-06-16T01:33:37.760Z,14.60
2018-06-16T01:36:06.060Z,14.60
2018-06-16T01:38:34.460Z,14.50
2018-06-16T01:41:02.753Z,14.50
2018-06-16T01:43:31.013Z,14.50
2018-06-16T01:45:59.277Z,14.40
2018-06-16T01:48:27.536Z,14.40
2018-06-16T01:50:55.876Z,14.40
2018-06-16T01:53:24.176Z,14.40
2018-06-16T01:55:52.473Z,14.30
2018-06-16T01:58:20.756Z,14.30
2018-06-16T02:00:49.046Z,14.30
2018-06-16T02:03:17.320Z,14.20
2018-06-16T02:05:45.575Z,14.20
2018-06-16T02:08:13.855Z,14.20
2018-06-16T02:10:42.140Z,14.20
2018-06-16T02:13:10.397Z,14.20
2018-06-16T02:15:38.695Z,14.10
2018-06-16T02:18:06.928Z,14.10
2018-06-16T02:20:35.334Z,14.10
2018-06-16T02:23:03.612Z,14.10
2018-06-16T02:25:32.243Z,14.10
2018-06-16T02:28:00.473Z,14.10
2018-06-16T02:30:28.776Z,14.10
2018-06-16T02:32:57.052Z,14.10
2018-06-16T02:35:25.344Z,14.10
2018-06-16T02:37:53.682Z,14.10
2018-06-16T02:40:21.992Z,14.10
2018-06-16T02:42:50.308Z,14.10
2018-06-16T02:45:18.574Z,14.10
2018-06-16T02:47:46.850Z,14.00
2018-06-16T02:50:15.251Z,14.10
2018-06-16T02:52:43.404Z,14.00
2018-06-16T02:55:11.633Z,14.00
2018-06-16T02:57:39.871Z,14.00
2018-06-16T03:00:08.135Z,14.00
2018-06-16T03:02:36.415Z,14.00
2018-06-16T03:05:04.688Z,13.90
2018-06-16T03:07:32.965Z,13.90
2018-06-16T03:10:01.261Z,13.90
2018-06-16T03:12:29.556Z,13.90
2018-06-16T03:14:57.828Z,13.90
2018-06-16T03:17:26.081Z,13.90
2018-06-16T03:19:54.345Z,13.90
2018-06-16T03:22:22.644Z,13.90
2018-06-16T03:24:50.921Z,13.90
2018-06-16T03:27:19.196Z,13.90
2018-06-16T03:29:47.517Z,13.90
2018-06-16T03:32:15.800Z,13.90
2018-06-16T03:34:44.069Z,13.80
2018-06-16T03:37:12.308Z,13.80
2018-06-16T03:39:40.596Z,13.90
2018-06-16T03:42:08.838Z,13.90
2018-06-16T03:47:05.088Z,13.90
2018-06-16T03:49:33.355Z,13.90
2018-06-16T03:52:01.638Z,13.90
2018-06-16T03:54:29.919Z,14.00
2018-06-16T03:56:58.190Z,14.00
2018-06-16T03:59:26.565Z,14.00
2018-06-16T04:01:54.927Z,14.00
2018-06-16T04:04:23.125Z,14.00
2018-06-16T04:06:51.412Z,14.10
2018-06-16T04:09:19.636Z,14.10
2018-06-16T04:11:47.911Z,14.10
2018-06-16T04:14:16.374Z,14.20
2018-06-16T04:16:44.655Z,14.20
2018-06-16T04:19:12.884Z,14.30
2018-06-16T04:21:41.155Z,14.30
2018-06-16T04:24:09.453Z,14.30
2018-06-16T04:26:37.744Z,14.40
2018-06-16T04:29:06.224Z,14.50
2018-06-16T04:31:35.297Z,14.50
2018-06-16T04:34:03.528Z,14.60
2018-06-16T04:36:31.784Z,14.70
2018-06-16T04:39:00.025Z,14.70
2018-06-16T04:41:28.290Z,14.80
2018-06-16T04:43:56.566Z,14.90
2018-06-16T04:46:24.874Z,15.00
2018-06-16T04:48:53.119Z,15.10
2018-06-16T04:51:21.403Z,15.20
2018-06-16T04:53:49.657Z,15.30
2018-06-16T04:56:17.970Z,15.40
2018-06-16T04:58:46.236Z,15.50
2018-06-16T05:01:14.504Z,15.60
2018-06-16T05:03:42.747Z,15.70
2018-06-16T05:06:11.015Z,15.80
2018-06-16T05:08:39.290Z,15.90
2018-06-16T05:11:07.505Z,16.00
2018-06-16T05:13:35.758Z,16.00
2018-06-16T05:16:04.108Z,16.10
2018-06-16T05:18:32.355Z,16.20
2018-06-16T05:21:00.582Z,16.30
2018-06-16T05:23:28.858Z,16.40
2018-06-16T05:25:57.130Z,16.50
2018-06-16T05:28:25.393Z,16.60
2018-06-16T05:30:53.664Z,16.70
2018-06-16T05:33:21.925Z,16.80
2018-06-16T05:35:50.336Z,16.90
2018-06-16T05:38:18.639Z,17.00
2018-06-16T05:40:46.922Z,17.10
2018-06-16T05:43:15.225Z,17.20
2018-06-16T05:45:43.960Z,17.20
2018-06-16T05:48:12.232Z,17.30
2018-06-16T05:50:40.492Z,17.40
2018-06-16T05:53:08.773Z,17.40
2018-06-16T05:55:37.029Z,17.50
2018-06-16T05:58:05.320Z,17.50
2018-06-16T06:00:33.652Z,17.60
2018-06-16T06:03:01.883Z,17.60
2018-06-16T06:05:30.106Z,17.60
2018-06-16T06:07:58.388Z,17.70
2018-06-16T06:10:26.775Z,17.80
2018-06-16T06:15:22.833Z,17.90
2018-06-16T06:17:51.097Z,18.00
2018-06-16T06:20:19.354Z,18.20
2018-06-16T06:22:47.633Z,18.30
2018-06-16T06:25:15.885Z,18.40
2018-06-16T06:30:12.200Z,18.60
2018-06-16T06:32:40.515Z,18.70
2018-06-16T06:35:08.767Z,18.80
2018-06-16T06:37:37.039Z,18.80
2018-06-16T06:40:05.578Z,18.90
2018-06-16T06:42:33.843Z,18.90
2018-06-16T06:45:02.406Z,19.00
2018-06-16T06:47:30.703Z,19.10
2018-06-16T06:49:58.944Z,19.20
2018-06-16T06:52:27.235Z,19.20
2018-06-16T06:54:55.465Z,19.30
2018-06-16T06:57:23.738Z,19.40
2018-06-16T06:59:52.014Z,19.50
2018-06-16T07:02:20.268Z,19.70
2018-06-16T07:04:48.504Z,19.80
2018-06-16T07:07:16.761Z,20.00
2018-06-16T07:09:45.186Z,20.20
2018-06-16T07:12:13.488Z,20.20
2018-06-16T07:14:41.747Z,20.40
2018-06-16T07:17:10.215Z,20.50
2018-06-16T07:19:38.718Z,20.70
2018-06-16T07:22:06.987Z,20.80
2018-06-16T07:24:35.683Z,21.00
2018-06-16T07:27:04.004Z,21.10
2018-06-16T07:29:32.275Z,21.20
2018-06-16T07:32:00.537Z,21.30
2018-06-16T07:34:28.796Z,21.40
2018-06-16T07:36:57.060Z,21.60
2018-06-16T07:39:25.364Z,21.70
2018-06-16T07:41:53.605Z,21.80
2018-06-16T07:44:21.881Z,22.00
2018-06-16T07:46:50.144Z,22.10
2018-06-16T07:49:18.405Z,22.30
2018-06-16T07:51:46.614Z,22.50
2018-06-16T07:54:14.869Z,22.60
2018-06-16T07:56:43.174Z,22.60
2018-06-16T07:59:11.439Z,22.80
2018-06-16T08:01:39.700Z,22.90
2018-06-16T08:04:07.992Z,23.00
2018-06-16T08:06:36.306Z,23.00
2018-06-16T08:09:06.908Z,23.10
2018-06-16T08:11:35.216Z,23.10
2018-06-16T08:14:03.525Z,23.10
2018-06-16T08:16:31.760Z,23.10
2018-06-16T08:19:00.033Z,23.10
2018-06-16T08:21:28.295Z,23.00
2018-06-16T08:23:56.573Z,23.00
2018-06-16T08:26:25.022Z,23.10
2018-06-16T08:28:53.317Z,23.10
2018-06-16T08:31:21.594Z,23.20
2018-06-16T08:33:49.851Z,23.50
2018-06-16T08:36:18.168Z,23.70
2018-06-16T08:38:46.400Z,23.90
2018-06-16T08:41:14.732Z,24.20
2018-06-16T08:43:43.029Z,24.40
2018-06-16T08:46:12.044Z,24.60
2018-06-16T08:48:40.520Z,24.80
2018-06-16T08:51:08.792Z,24.90
2018-06-16T08:53:37.260Z,25.00
2018-06-16T08:56:05.793Z,25.00
2018-06-16T08:58:34.137Z,25.10
2018-06-16T09:01:02.352Z,25.10
2018-06-16T09:03:30.606Z,25.20
2018-06-16T09:05:58.965Z,25.20
2018-06-16T09:13:23.279Z,25.30
2018-06-16T09:15:51.540Z,25.30
2018-06-16T09:18:19.784Z,25.20
2018-06-16T09:20:48.069Z,25.10
2018-06-16T09:23:16.334Z,25.30
2018-06-16T09:25:44.760Z,25.40
2018-06-16T09:28:12.992Z,25.40
2018-06-16T09:30:41.260Z,25.40
2018-06-16T09:33:09.941Z,25.30
2018-06-16T09:35:38.238Z,25.30
2018-06-16T09:38:06.657Z,25.10
2018-06-16T09:40:34.905Z,25.10
2018-06-16T09:43:03.316Z,25.00
2018-06-16T09:45:31.634Z,24.80
2018-06-16T09:47:59.868Z,24.60
2018-06-16T09:50:28.185Z,24.50
2018-06-16T09:52:56.424Z,24.40
2018-06-16T09:55:24.672Z,24.30
2018-06-16T09:57:52.989Z,24.20
2018-06-16T10:00:28.355Z,24.10
2018-06-16T10:02:56.948Z,23.90
2018-06-16T10:05:25.224Z,23.80
2018-06-16T10:07:54.353Z,23.70
2018-06-16T10:10:22.615Z,23.50
2018-06-16T10:12:50.866Z,23.30
2018-06-16T10:15:19.226Z,23.10
2018-06-16T10:17:47.583Z,23.00
2018-06-16T10:20:16.137Z,23.00
2018-06-16T10:22:44.521Z,23.10
2018-06-16T10:25:12.810Z,23.10
2018-06-16T10:27:41.141Z,23.30
2018-06-16T10:30:09.809Z,23.50
2018-06-16T10:32:38.344Z,23.70
2018-06-16T10:35:06.600Z,23.90
2018-06-16T10:37:35.034Z,24.10
2018-06-16T10:40:03.495Z,24.30
2018-06-16T10:42:31.789Z,24.40
2018-06-16T10:45:00.173Z,24.50
2018-06-16T10:47:28.480Z,24.70
2018-06-16T10:49:56.708Z,24.70
2018-06-16T10:52:25.167Z,24.80
2018-06-16T10:54:53.513Z,24.80
2018-06-16T10:57:21.822Z,24.80
2018-06-16T10:59:50.224Z,24.80
2018-06-16T11:02:18.510Z,24.80
2018-06-16T11:04:46.756Z,24.80
2018-06-16T11:07:15.029Z,24.70
2018-06-16T11:09:43.347Z,24.50
2018-06-16T11:12:11.790Z,24.40
2018-06-16T11:14:47.406Z,24.30
2018-06-16T11:17:15.957Z,24.10
2018-06-16T11:19:44.278Z,23.90
2018-06-16T11:22:12.606Z,23.60
2018-06-16T11:24:40.834Z,23.20
2018-06-16T11:27:09.064Z,22.80
2018-06-16T11:29:37.404Z,22.40
2018-06-16T11:32:05.904Z,22.00
2018-06-16T11:34:34.141Z,21.60
2018-06-16T11:39:30.405Z,21.00
2018-06-16T11:41:58.636Z,20.90
2018-06-16T11:44:26.929Z,20.60
2018-06-16T11:46:55.187Z,20.40
2018-06-16T11:49:23.710Z,20.20
2018-06-16T11:51:52.340Z,20.10
2018-06-16T11:54:20.650Z,19.90
2018-06-16T11:56:48.927Z,19.80
2018-06-16T11:59:17.271Z,19.70
2018-06-16T12:01:45.530Z,19.60
2018-06-16T12:04:13.757Z,19.60
2018-06-16T12:06:42.086Z,19.50
2018-06-16T12:09:11.999Z,19.50
2018-06-16T12:11:40.310Z,19.50
2018-06-16T12:14:09.370Z,19.40
2018-06-16T12:16:37.933Z,19.40
2018-06-16T12:19:06.520Z,19.30
2018-06-16T12:21:34.813Z,19.20
2018-06-16T12:24:03.088Z,19.20
2018-06-16T12:26:31.370Z,19.10
2018-06-16T12:28:59.752Z,19.00
2018-06-16T12:31:28.025Z,19.00
2018-06-16T12:33:56.266Z,19.00
2018-06-16T12:38:52.531Z,18.90
2018-06-16T12:41:20.813Z,18.90
2018-06-16T12:43:49.096Z,18.90
2018-06-16T12:46:17.688Z,18.90
2018-06-16T12:48:45.984Z,18.90
2018-06-16T12:51:14.341Z,18.90
2018-06-16T12:53:42.817Z,18.90
2018-06-16T12:56:11.100Z,18.90
2018-06-16T12:58:39.358Z,19.00
2018-06-16T13:01:07.603Z,19.10
2018-06-16T13:03:35.917Z,19.20
2018-06-16T13:06:04.255Z,19.20
2018-06-16T13:11:00.512Z,19.50
2018-06-16T13:13:28.860Z,19.60
2018-06-16T13:15:57.127Z,19.90
2018-06-16T13:18:25.381Z,20.10
2018-06-16T13:20:53.656Z,20.50
2018-06-16T13:23:22.066Z,20.80
2018-06-16T13:25:50.314Z,21.00
2018-06-16T13:28:18.589Z,21.10
2018-06-16T13:30:46.852Z,21.20
2018-06-16T13:33:15.105Z,21.40
2018-06-16T13:35:43.376Z,21.60
2018-06-16T13:40:39.870Z,22.00
2018-06-16T13:43:08.153Z,22.10
2018-06-16T13:45:36.421Z,22.20
2018-06-16T13:48:04.736Z,22.40
2018-06-16T13:53:01.133Z,22.70
2018-06-16T13:55:29.505Z,22.90
2018-06-16T13:57:57.972Z,23.00
2018-06-16T14:00:26.489Z,23.20
2018-06-16T14:02:54.796Z,23.30
2018-06-16T14:05:23.041Z,23.60
2018-06-16T14:07:51.326Z,23.90
2018-06-16T14:10:19.573Z,24.20
2018-06-16T14:12:47.889Z,24.50
2018-06-16T14:15:16.212Z,24.70
2018-06-16T14:17:45.030Z,24.80
2018-06-16T14:20:13.303Z,25.00
2018-06-16T14:22:43.401Z,25.10
2018-06-16T14:25:12.961Z,25.10
2018-06-16T14:27:41.228Z,25.10
2018-06-16T14:30:09.496Z,25.20
2018-06-16T14:32:37.733Z,25.30
2018-06-16T14:35:06.370Z,25.30
2018-06-16T14:37:34.633Z,25.50
2018-06-16T14:40:02.903Z,25.50
2018-06-16T14:42:31.169Z,25.50
2018-06-16T14:44:59.528Z,25.50
2018-06-16T14:47:27.957Z,25.50
2018-06-16T14:49:56.236Z,25.60
2018-06-16T14:52:24.506Z,25.60
2018-06-16T14:54:52.810Z,25.60
2018-06-16T14:57:21.141Z,25.60
2018-06-16T14:59:49.408Z,25.60
2018-06-16T15:02:17.684Z,25.60
2018-06-16T15:04:46.143Z,25.50
2018-06-16T15:07:14.346Z,25.40
2018-06-16T15:12:10.665Z,25.30
2018-06-16T15:14:39.176Z,25.30
2018-06-16T15:17:07.474Z,25.30
2018-06-16T15:19:35.766Z,25.30
2018-06-16T15:22:04.044Z,25.30
2018-06-16T15:24:32.321Z,25.20
2018-06-16T15:27:00.628Z,25.20
2018-06-16T15:29:28.928Z,25.10
2018-06-16T15:31:57.212Z,25.10
2018-06-16T15:34:25.493Z,25.00
2018-06-16T15:36:53.776Z,25.00
2018-06-16T15:39:22.048Z,25.00
2018-06-16T15:41:50.324Z,25.00
2018-06-16T15:44:18.620Z,25.10
2018-06-16T15:46:47.004Z,25.10
2018-06-16T15:49:15.216Z,25.10
2018-06-16T15:51:43.491Z,25.10
2018-06-16T15:54:11.773Z,25.10
2018-06-16T15:56:40.079Z,25.00
2018-06-16T15:59:08.388Z,24.90
2018-06-16T16:01:36.645Z,24.80
2018-06-16T16:04:04.932Z,24.70
2018-06-16T16:06:33.232Z,24.60
2018-06-16T16:09:01.497Z,24.50
2018-06-16T16:11:29.872Z,24.40
2018-06-16T16:13:58.229Z,24.30
2018-06-16T16:16:26.506Z,24.30
2018-06-16T16:18:54.947Z,24.20
2018-06-16T16:21:23.297Z,24.20
2018-06-16T16:23:51.545Z,24.20
2018-06-16T16:26:19.817Z,24.20
2018-06-16T16:28:48.161Z,24.20
2018-06-16T16:31:16.541Z,24.30
2018-06-16T16:33:44.832Z,24.40
2018-06-16T16:36:13.136Z,24.40
2018-06-16T16:38:41.412Z,24.60
2018-06-16T16:41:09.677Z,24.70
2018-06-16T16:43:38.173Z,24.70
2018-06-16T16:46:06.448Z,24.70
2018-06-16T16:48:34.711Z,24.70
2018-06-16T16:51:03.066Z,24.70
2018-06-16T16:53:31.364Z,24.60
2018-06-16T16:55:59.760Z,24.50
2018-06-16T16:58:28.037Z,24.50
2018-06-16T17:00:56.378Z,24.50
2018-06-16T17:03:24.611Z,24.50
2018-06-16T17:05:52.869Z,24.40
2018-06-16T17:08:21.156Z,24.40
2018-06-16T17:10:49.381Z,24.30
2018-06-16T17:15:45.788Z,24.10
2018-06-16T17:18:14.020Z,24.00
2018-06-16T17:20:42.396Z,24.00
2018-06-16T17:23:10.662Z,23.90
2018-06-16T17:25:38.892Z,23.90
2018-06-16T17:28:07.243Z,23.90
2018-06-16T17:30:35.686Z,23.90
2018-06-16T17:33:10.342Z,23.90
2018-06-16T17:35:38.615Z,24.00
2018-06-16T17:38:07.110Z,23.90
2018-06-16T17:40:35.385Z,23.90
2018-06-16T17:43:03.665Z,23.90
2018-06-16T17:45:31.941Z,23.90
2018-06-16T17:48:00.213Z,23.80
2018-06-16T17:50:28.506Z,23.80
2018-06-16T17:52:56.814Z,23.70
2018-06-16T17:55:25.112Z,23.70
2018-06-16T17:57:53.385Z,23.70
2018-06-16T18:00:21.763Z,23.60
2018-06-16T18:02:50.013Z,23.50
2018-06-16T18:05:18.269Z,23.40
2018-06-16T18:07:46.528Z,23.30
2018-06-16T18:10:14.932Z,23.20
2018-06-16T18:12:43.260Z,23.10
2018-06-16T18:15:11.681Z,22.90
2018-06-16T18:17:40.038Z,22.80
2018-06-16T18:20:08.620Z,22.70
2018-06-16T18:22:36.990Z,22.70
2018-06-16T18:25:05.356Z,22.60
2018-06-16T18:27:33.626Z,22.50
2018-06-16T18:30:01.902Z,22.40
2018-06-16T18:32:30.209Z,22.30
2018-06-16T18:34:58.505Z,22.20
2018-06-16T18:37:26.745Z,22.20
2018-06-16T18:39:55.094Z,22.10
2018-06-16T18:42:23.368Z,22.00
2018-06-16T18:44:51.685Z,22.00
2018-06-16T18:47:19.978Z,22.00
2018-06-16T18:49:48.309Z,21.90
2018-06-16T18:52:16.529Z,21.90
2018-06-16T18:54:44.824Z,21.80
2018-06-16T18:57:13.150Z,21.80
2018-06-16T18:59:41.426Z,21.70
2018-06-16T19:02:09.676Z,21.70
2018-06-16T19:04:37.957Z,21.60
2018-06-16T19:07:06.292Z,21.60
2018-06-16T19:12:02.657Z,21.50
2018-06-16T19:14:31.120Z,21.40
2018-06-16T19:16:59.422Z,21.30
2018-06-16T19:19:27.668Z,21.30
2018-06-16T19:21:56.344Z,21.20
2018-06-16T19:24:24.610Z,21.10
2018-06-16T19:26:52.901Z,21.10
2018-06-16T19:29:21.172Z,21.00
2018-06-16T19:31:49.446Z,20.90
2018-06-16T19:34:17.808Z,20.80
2018-06-16T19:36:46.201Z,20.80
2018-06-16T19:39:14.476Z,20.70
2018-06-16T19:41:42.764Z,20.60
2018-06-16T19:44:11.068Z,20.60
2018-06-16T19:46:39.329Z,20.50
2018-06-16T19:49:08.085Z,20.40
2018-06-16T19:51:37.121Z,20.40
2018-06-16T19:54:05.508Z,20.40
2018-06-16T19:56:33.788Z,20.30
2018-06-16T19:59:02.029Z,20.20
2018-06-16T20:01:30.445Z,20.20
2018-06-16T20:03:58.701Z,20.10
2018-06-16T20:06:26.977Z,20.00
2018-06-16T20:08:55.252Z,20.00
2018-06-16T20:11:23.549Z,19.90
2018-06-16T20:13:51.788Z,19.80
2018-06-16T20:16:20.095Z,19.70
2018-06-16T20:18:48.361Z,19.60
2018-06-16T20:21:16.705Z,19.50
2018-06-16T20:23:44.996Z,19.40
2018-06-16T20:26:13.336Z,19.30
2018-06-16T20:28:41.681Z,19.20
2018-06-16T20:31:09.948Z,19.20
2018-06-16T20:33:38.236Z,19.10
2018-06-16T20:36:07.809Z,19.00
2018-06-16T20:38:36.096Z,18.90
2018-06-16T20:41:04.397Z,18.80
2018-06-16T20:43:32.684Z,18.70
2018-06-16T20:46:00.942Z,18.60
2018-06-16T20:48:29.236Z,18.60
2018-06-16T20:50:57.500Z,18.50
2018-06-16T20:53:25.820Z,18.40
2018-06-16T20:55:54.117Z,18.40
2018-06-16T20:58:22.336Z,18.30
2018-06-16T21:00:50.621Z,18.20
2018-06-16T21:03:22.319Z,18.10
2018-06-16T21:05:50.621Z,18.10
2018-06-16T21:08:18.910Z,18.10
2018-06-16T21:10:47.172Z,18.00
2018-06-16T21:13:15.436Z,18.00
2018-06-16T21:15:43.765Z,18.00
2018-06-16T21:18:12.097Z,17.90
2018-06-16T21:20:40.543Z,17.90
2018-06-16T21:23:08.785Z,17.90
2018-06-16T21:25:37.034Z,17.90
2018-06-16T21:28:05.316Z,17.80
2018-06-16T21:30:33.860Z,17.80
2018-06-16T21:33:02.129Z,17.80
2018-06-16T21:35:30.859Z,17.70
2018-06-16T21:37:59.198Z,17.80
2018-06-16T21:40:27.459Z,17.70
2018-06-16T21:42:55.743Z,17.70
2018-06-16T21:45:23.993Z,17.70
2018-06-16T21:47:54.090Z,17.60
2018-06-16T21:50:25.143Z,17.60
2018-06-16T21:52:53.461Z,17.60
2018-06-16T21:55:21.857Z,17.60
2018-06-16T21:57:50.115Z,17.60
2018-06-16T22:00:18.394Z,17.60
2018-06-16T22:02:46.979Z,17.50
2018-06-16T22:05:15.220Z,17.60
2018-06-16T22:07:43.474Z,17.50
2018-06-16T22:10:11.764Z,17.50
2018-06-16T22:12:40.145Z,17.60
2018-06-16T22:15:08.537Z,17.50
2018-06-16T22:17:36.916Z,17.60
2018-06-16T22:20:05.216Z,17.60
2018-06-16T22:22:33.488Z,17.60
2018-06-16T22:25:01.763Z,17.60
2018-06-16T22:27:30.324Z,17.60
2018-06-16T22:29:58.592Z,17.60
2018-06-16T22:32:26.896Z,17.60
2018-06-16T22:34:55.173Z,17.60
2018-06-16T22:37:23.498Z,17.60
2018-06-16T22:39:51.804Z,17.60
2018-06-16T22:42:20.052Z,17.60
2018-06-16T22:44:48.373Z,17.60
2018-06-16T22:47:16.649Z,17.50
2018-06-16T22:49:44.928Z,17.50
2018-06-16T22:52:13.196Z,17.50
2018-06-16T22:54:41.485Z,17.50
2018-06-16T22:57:09.784Z,17.50
2018-06-16T22:59:38.028Z,17.50
2018-06-16T23:02:06.324Z,17.40
2018-06-16T23:04:34.605Z,17.50
2018-06-16T23:07:02.837Z,17.40
2018-06-16T23:09:31.145Z,17.40
2018-06-16T23:11:59.421Z,17.50
2018-06-16T23:14:27.671Z,17.40
2018-06-16T23:16:56.016Z,17.40
2018-06-16T23:19:24.239Z,17.40
2018-06-16T23:21:52.529Z,17.40
2018-06-16T23:24:20.786Z,17.40
2018-06-16T23:26:49.064Z,17.30
2018-06-16T23:29:17.331Z,17.30
2018-06-16T23:31:45.693Z,17.30
2018-06-16T23:34:13.966Z,17.20
2018-06-16T23:36:42.224Z,17.20
2018-06-16T23:39:12.276Z,17.20
2018-06-16T23:41:40.843Z,17.10
2018-06-16T23:44:09.103Z,17.10
2018-06-16T23:46:37.516Z,17.00
2018-06-16T23:49:05.986Z,17.00
2018-06-16T23:51:34.364Z,17.00
2018-06-16T23:54:02.664Z,16.90
2018-06-16T23:56:30.934Z,16.90
2018-06-16T23:58:59.186Z,16.90
